sensor_id;sensor_type;location;lat;lon;timestamp;P1;durP1;ratioP1;P2;durP2;ratioP2
72882;SDS011;61017;37.812;-122.286;2022-12-18T00:00:19;9.02;;;3.47;;
72882;SDS011;61017;37.812;-122.286;2022-12-18T00:02:09;9.52;;;3.47;;
72882;SDS011;61017;37.812;-122.286;2022-12-18T00:04:00;8.32;;;3.35;;
72882;SDS011;61017;37.812;-122.286;2022-12-18T00:05:51;6.68;;;3.72;;
72882;SDS011;61017;37.812;-122.286;2022-12-18T00:07:41;6.55;;;3.63;;
72882;SDS011;61017;37.812;-122.286;2022-12-18T00:09:32;9.07;;;3.70;;
72882;SDS011;61017;37.812;-122.286;2022-12-18T00:11:23;5.97;;;3.45;;
72882;SDS011;61017;37.812;-122.286;2022-12-18T00:13:14;12.80;;;3.63;;
72882;SDS011;61017;37.812;-122.286;2022-12-18T00:15:05;8.27;;;3.70;;
72882;SDS011;61017;37.812;-122.286;2022-12-18T00:16:55;8.02;;;3.70;;
72882;SDS011;61017;37.812;-122.286;2022-12-18T00:18:45;9.45;;;3.33;;
72882;SDS011;61017;37.812;-122.286;2022-12-18T00:20:37;8.48;;;3.47;;
72882;SDS011;61017;37.812;-122.286;2022-12-18T00:22:28;6.03;;;3.50;;
72882;SDS011;61017;37.812;-122.286;2022-12-18T00:24:21;9.90;;;3.75;;
72882;SDS011;61017;37.812;-122.286;2022-12-18T00:26:12;11.73;;;3.70;;
72882;SDS011;61017;37.812;-122.286;2022-12-18T00:28:04;8.63;;;3.40;;
72882;SDS011;61017;37.812;-122.286;2022-12-18T00:29:54;7.97;;;3.72;;
72882;SDS011;61017;37.812;-122.286;2022-12-18T00:31:44;11.55;;;3.83;;
72882;SDS011;61017;37.812;-122.286;2022-12-18T00:33:35;7.75;;;3.50;;
72882;SDS011;61017;37.812;-122.286;2022-12-18T00:35:25;11.00;;;3.78;;
72882;SDS011;61017;37.812;-122.286;2022-12-18T00:37:16;9.00;;;4.00;;
72882;SDS011;61017;37.812;-122.286;2022-12-18T00:39:06;9.90;;;4.07;;
72882;SDS011;61017;37.812;-122.286;2022-12-18T00:40:57;7.95;;;3.95;;
72882;SDS011;61017;37.812;-122.286;2022-12-18T00:42:47;7.95;;;4.00;;
72882;SDS011;61017;37.812;-122.286;2022-12-18T00:44:37;8.52;;;4.07;;
72882;SDS011;61017;37.812;-122.286;2022-12-18T00:46:28;8.63;;;3.90;;
72882;SDS011;61017;37.812;-122.286;2022-12-18T00:48:18;6.68;;;3.95;;
72882;SDS011;61017;37.812;-122.286;2022-12-18T00:50:08;7.38;;;4.20;;
72882;SDS011;61017;37.812;-122.286;2022-12-18T00:51:59;9.07;;;4.38;;
72882;SDS011;61017;37.812;-122.286;2022-12-18T00:53:49;8.90;;;4.00;;
72882;SDS011;61017;37.812;-122.286;2022-12-18T00:55:39;7.47;;;4.20;;
72882;SDS011;61017;37.812;-122.286;2022-12-18T00:57:30;7.60;;;4.13;;
72882;SDS011;61017;37.812;-122.286;2022-12-18T00:59:20;10.25;;;4.50;;
72882;SDS011;61017;37.812;-122.286;2022-12-18T01:01:10;9.95;;;4.30;;
72882;SDS011;61017;37.812;-122.286;2022-12-18T01:03:00;9.75;;;4.13;;
72882;SDS011;61017;37.812;-122.286;2022-12-18T01:04:50;7.82;;;4.40;;
72882;SDS011;61017;37.812;-122.286;2022-12-18T01:06:41;9.55;;;4.30;;
72882;SDS011;61017;37.812;-122.286;2022-12-18T01:08:31;6.53;;;4.05;;
72882;SDS011;61017;37.812;-122.286;2022-12-18T01:10:22;7.93;;;4.50;;
72882;SDS011;61017;37.812;-122.286;2022-12-18T01:12:12;11.30;;;4.22;;
72882;SDS011;61017;37.812;-122.286;2022-12-18T01:14:02;8.40;;;4.30;;
72882;SDS011;61017;37.812;-122.286;2022-12-18T01:15:53;12.23;;;4.68;;
72882;SDS011;61017;37.812;-122.286;2022-12-18T01:17:43;9.48;;;4.30;;
72882;SDS011;61017;37.812;-122.286;2022-12-18T01:19:33;7.30;;;4.57;;
72882;SDS011;61017;37.812;-122.286;2022-12-18T01:21:24;8.48;;;4.68;;
72882;SDS011;61017;37.812;-122.286;2022-12-18T01:23:14;9.80;;;4.30;;
72882;SDS011;61017;37.812;-122.286;2022-12-18T01:25:04;8.70;;;4.70;;
72882;SDS011;61017;37.812;-122.286;2022-12-18T01:26:54;8.18;;;4.80;;
72882;SDS011;61017;37.812;-122.286;2022-12-18T01:28:45;13.73;;;4.78;;
72882;SDS011;61017;37.812;-122.286;2022-12-18T01:30:35;7.15;;;4.60;;
72882;SDS011;61017;37.812;-122.286;2022-12-18T01:32:25;5.82;;;4.20;;
72882;SDS011;61017;37.812;-122.286;2022-12-18T01:34:15;7.10;;;4.78;;
72882;SDS011;61017;37.812;-122.286;2022-12-18T01:36:05;8.82;;;4.68;;
72882;SDS011;61017;37.812;-122.286;2022-12-18T01:40:04;9.07;;;4.57;;
72882;SDS011;61017;37.812;-122.286;2022-12-18T01:41:55;6.55;;;4.70;;
72882;SDS011;61017;37.812;-122.286;2022-12-18T01:43:47;8.70;;;5.13;;
72882;SDS011;61017;37.812;-122.286;2022-12-18T01:45:44;7.10;;;4.40;;
72882;SDS011;61017;37.812;-122.286;2022-12-18T01:47:39;7.05;;;4.40;;
72882;SDS011;61017;37.812;-122.286;2022-12-18T01:49:36;8.73;;;4.78;;
72882;SDS011;61017;37.812;-122.286;2022-12-18T01:51:26;7.97;;;4.80;;
72882;SDS011;61017;37.812;-122.286;2022-12-18T01:53:20;9.48;;;4.70;;
72882;SDS011;61017;37.812;-122.286;2022-12-18T01:55:11;6.97;;;4.80;;
72882;SDS011;61017;37.812;-122.286;2022-12-18T01:57:03;8.27;;;4.82;;
72882;SDS011;61017;37.812;-122.286;2022-12-18T01:58:56;6.85;;;4.60;;
72882;SDS011;61017;37.812;-122.286;2022-12-18T02:00:58;8.52;;;4.97;;
72882;SDS011;61017;37.812;-122.286;2022-12-18T02:02:49;9.10;;;4.85;;
72882;SDS011;61017;37.812;-122.286;2022-12-18T02:04:39;9.02;;;5.00;;
72882;SDS011;61017;37.812;-122.286;2022-12-18T02:06:34;9.50;;;4.95;;
72882;SDS011;61017;37.812;-122.286;2022-12-18T02:08:33;8.65;;;4.75;;
72882;SDS011;61017;37.812;-122.286;2022-12-18T02:10:32;8.40;;;4.97;;
72882;SDS011;61017;37.812;-122.286;2022-12-18T02:12:42;7.55;;;4.80;;
72882;SDS011;61017;37.812;-122.286;2022-12-18T02:17:13;7.13;;;4.50;;
72882;SDS011;61017;37.812;-122.286;2022-12-18T02:28:21;8.43;;;4.72;;
72882;SDS011;61017;37.812;-122.286;2022-12-18T02:30:19;8.75;;;4.60;;
72882;SDS011;61017;37.812;-122.286;2022-12-18T02:32:12;9.75;;;4.93;;
72882;SDS011;61017;37.812;-122.286;2022-12-18T02:34:07;8.55;;;5.13;;
72882;SDS011;61017;37.812;-122.286;2022-12-18T02:35:59;7.85;;;5.00;;
72882;SDS011;61017;37.812;-122.286;2022-12-18T02:37:50;8.93;;;5.07;;
72882;SDS011;61017;37.812;-122.286;2022-12-18T02:39:42;8.18;;;4.78;;
72882;SDS011;61017;37.812;-122.286;2022-12-18T02:41:35;8.88;;;4.80;;
72882;SDS011;61017;37.812;-122.286;2022-12-18T02:43:26;8.45;;;4.72;;
72882;SDS011;61017;37.812;-122.286;2022-12-18T02:45:15;8.23;;;4.60;;
72882;SDS011;61017;37.812;-122.286;2022-12-18T02:47:08;7.80;;;4.70;;
72882;SDS011;61017;37.812;-122.286;2022-12-18T02:49:11;7.60;;;4.70;;
72882;SDS011;61017;37.812;-122.286;2022-12-18T02:51:23;7.22;;;4.47;;
72882;SDS011;61017;37.812;-122.286;2022-12-18T02:53:24;8.68;;;4.68;;
72882;SDS011;61017;37.812;-122.286;2022-12-18T03:01:52;10.20;;;4.60;;
72882;SDS011;61017;37.812;-122.286;2022-12-18T03:03:52;10.55;;;5.13;;
72882;SDS011;61017;37.812;-122.286;2022-12-18T03:05:50;7.60;;;5.00;;
72882;SDS011;61017;37.812;-122.286;2022-12-18T03:09:46;11.30;;;4.78;;
72882;SDS011;61017;37.812;-122.286;2022-12-18T03:11:41;8.63;;;4.75;;
72882;SDS011;61017;37.812;-122.286;2022-12-18T03:15:38;11.10;;;5.10;;
72882;SDS011;61017;37.812;-122.286;2022-12-18T03:17:34;10.40;;;4.70;;
72882;SDS011;61017;37.812;-122.286;2022-12-18T03:19:27;11.43;;;4.85;;
72882;SDS011;61017;37.812;-122.286;2022-12-18T03:21:20;8.35;;;4.80;;
72882;SDS011;61017;37.812;-122.286;2022-12-18T03:23:19;10.75;;;4.90;;
72882;SDS011;61017;37.812;-122.286;2022-12-18T03:25:13;11.27;;;5.20;;
72882;SDS011;61017;37.812;-122.286;2022-12-18T03:27:15;8.10;;;5.03;;
72882;SDS011;61017;37.812;-122.286;2022-12-18T03:29:12;7.18;;;4.72;;
72882;SDS011;61017;37.812;-122.286;2022-12-18T03:31:08;7.13;;;4.68;;
72882;SDS011;61017;37.812;-122.286;2022-12-18T03:35:13;7.45;;;4.63;;
72882;SDS011;61017;37.812;-122.286;2022-12-18T03:37:08;9.32;;;5.00;;
72882;SDS011;61017;37.812;-122.286;2022-12-18T03:38:59;8.75;;;5.22;;
72882;SDS011;61017;37.812;-122.286;2022-12-18T03:41:14;9.40;;;4.88;;
72882;SDS011;61017;37.812;-122.286;2022-12-18T03:43:03;6.82;;;4.63;;
72882;SDS011;61017;37.812;-122.286;2022-12-18T03:47:07;10.48;;;4.70;;
72882;SDS011;61017;37.812;-122.286;2022-12-18T03:49:50;9.60;;;4.65;;
72882;SDS011;61017;37.812;-122.286;2022-12-18T03:53:15;8.85;;;4.93;;
72882;SDS011;61017;37.812;-122.286;2022-12-18T03:55:22;7.65;;;4.13;;
72882;SDS011;61017;37.812;-122.286;2022-12-18T03:57:17;7.90;;;4.70;;
72882;SDS011;61017;37.812;-122.286;2022-12-18T03:59:13;8.73;;;4.60;;
72882;SDS011;61017;37.812;-122.286;2022-12-18T04:01:06;8.70;;;4.60;;
72882;SDS011;61017;37.812;-122.286;2022-12-18T04:02:59;7.88;;;4.45;;
72882;SDS011;61017;37.812;-122.286;2022-12-18T04:04:52;8.63;;;4.90;;
72882;SDS011;61017;37.812;-122.286;2022-12-18T04:06:46;8.30;;;4.85;;
72882;SDS011;61017;37.812;-122.286;2022-12-18T04:08:38;10.02;;;5.00;;
72882;SDS011;61017;37.812;-122.286;2022-12-18T04:10:29;9.82;;;5.20;;
72882;SDS011;61017;37.812;-122.286;2022-12-18T04:12:20;10.25;;;5.25;;
72882;SDS011;61017;37.812;-122.286;2022-12-18T04:14:10;6.32;;;4.57;;
72882;SDS011;61017;37.812;-122.286;2022-12-18T04:16:00;6.72;;;4.43;;
72882;SDS011;61017;37.812;-122.286;2022-12-18T04:17:50;7.35;;;4.85;;
72882;SDS011;61017;37.812;-122.286;2022-12-18T04:19:40;6.70;;;4.57;;
72882;SDS011;61017;37.812;-122.286;2022-12-18T04:21:30;8.35;;;4.68;;
72882;SDS011;61017;37.812;-122.286;2022-12-18T04:23:21;9.15;;;4.90;;
72882;SDS011;61017;37.812;-122.286;2022-12-18T04:25:11;5.97;;;4.60;;
72882;SDS011;61017;37.812;-122.286;2022-12-18T04:27:01;9.23;;;4.70;;
72882;SDS011;61017;37.812;-122.286;2022-12-18T04:28:51;8.68;;;5.15;;
72882;SDS011;61017;37.812;-122.286;2022-12-18T04:30:41;7.68;;;4.93;;
72882;SDS011;61017;37.812;-122.286;2022-12-18T04:32:32;7.45;;;5.07;;
72882;SDS011;61017;37.812;-122.286;2022-12-18T04:34:23;11.40;;;5.43;;
72882;SDS011;61017;37.812;-122.286;2022-12-18T04:36:13;9.20;;;5.30;;
72882;SDS011;61017;37.812;-122.286;2022-12-18T04:38:03;7.43;;;4.82;;
72882;SDS011;61017;37.812;-122.286;2022-12-18T04:39:55;8.85;;;5.00;;
72882;SDS011;61017;37.812;-122.286;2022-12-18T04:41:45;12.63;;;5.30;;
72882;SDS011;61017;37.812;-122.286;2022-12-18T04:43:35;10.57;;;5.20;;
72882;SDS011;61017;37.812;-122.286;2022-12-18T04:45:25;13.00;;;5.53;;
72882;SDS011;61017;37.812;-122.286;2022-12-18T04:47:15;10.50;;;5.50;;
72882;SDS011;61017;37.812;-122.286;2022-12-18T04:49:06;9.48;;;5.80;;
72882;SDS011;61017;37.812;-122.286;2022-12-18T04:50:56;12.98;;;5.43;;
72882;SDS011;61017;37.812;-122.286;2022-12-18T04:52:46;12.68;;;5.53;;
72882;SDS011;61017;37.812;-122.286;2022-12-18T04:54:36;8.65;;;5.53;;
72882;SDS011;61017;37.812;-122.286;2022-12-18T04:56:26;11.18;;;5.05;;
72882;SDS011;61017;37.812;-122.286;2022-12-18T04:58:16;7.65;;;4.93;;
72882;SDS011;61017;37.812;-122.286;2022-12-18T05:00:06;12.32;;;5.50;;
72882;SDS011;61017;37.812;-122.286;2022-12-18T05:01:57;17.10;;;6.03;;
72882;SDS011;61017;37.812;-122.286;2022-12-18T05:03:47;23.88;;;5.97;;
72882;SDS011;61017;37.812;-122.286;2022-12-18T05:05:37;12.27;;;5.40;;
72882;SDS011;61017;37.812;-122.286;2022-12-18T05:07:27;17.05;;;5.68;;
72882;SDS011;61017;37.812;-122.286;2022-12-18T05:09:17;24.48;;;5.50;;
72882;SDS011;61017;37.812;-122.286;2022-12-18T05:11:08;17.02;;;5.75;;
72882;SDS011;61017;37.812;-122.286;2022-12-18T05:13:00;16.17;;;5.75;;
72882;SDS011;61017;37.812;-122.286;2022-12-18T05:14:50;12.70;;;5.60;;
72882;SDS011;61017;37.812;-122.286;2022-12-18T05:16:41;16.90;;;5.45;;
72882;SDS011;61017;37.812;-122.286;2022-12-18T05:18:31;14.80;;;5.47;;
72882;SDS011;61017;37.812;-122.286;2022-12-18T05:20:21;14.68;;;5.40;;
72882;SDS011;61017;37.812;-122.286;2022-12-18T05:22:11;15.05;;;5.53;;
72882;SDS011;61017;37.812;-122.286;2022-12-18T05:24:02;14.05;;;5.18;;
72882;SDS011;61017;37.812;-122.286;2022-12-18T05:25:53;22.55;;;5.57;;
72882;SDS011;61017;37.812;-122.286;2022-12-18T05:27:44;14.60;;;5.68;;
72882;SDS011;61017;37.812;-122.286;2022-12-18T05:29:34;19.02;;;5.65;;
72882;SDS011;61017;37.812;-122.286;2022-12-18T05:31:24;17.58;;;5.53;;
72882;SDS011;61017;37.812;-122.286;2022-12-18T05:33:14;18.80;;;5.45;;
72882;SDS011;61017;37.812;-122.286;2022-12-18T05:35:05;11.30;;;5.20;;
72882;SDS011;61017;37.812;-122.286;2022-12-18T05:36:57;16.75;;;5.35;;
72882;SDS011;61017;37.812;-122.286;2022-12-18T05:38:47;17.58;;;5.68;;
72882;SDS011;61017;37.812;-122.286;2022-12-18T05:40:37;23.58;;;5.82;;
72882;SDS011;61017;37.812;-122.286;2022-12-18T05:42:30;20.85;;;5.78;;
72882;SDS011;61017;37.812;-122.286;2022-12-18T05:44:20;22.77;;;6.53;;
72882;SDS011;61017;37.812;-122.286;2022-12-18T05:46:14;21.15;;;6.15;;
72882;SDS011;61017;37.812;-122.286;2022-12-18T05:48:06;23.77;;;5.93;;
72882;SDS011;61017;37.812;-122.286;2022-12-18T05:49:57;22.73;;;5.85;;
72882;SDS011;61017;37.812;-122.286;2022-12-18T05:51:47;13.52;;;6.25;;
72882;SDS011;61017;37.812;-122.286;2022-12-18T05:53:37;12.35;;;5.57;;
72882;SDS011;61017;37.812;-122.286;2022-12-18T05:55:27;13.75;;;5.65;;
72882;SDS011;61017;37.812;-122.286;2022-12-18T05:57:18;14.23;;;5.93;;
72882;SDS011;61017;37.812;-122.286;2022-12-18T05:59:08;17.80;;;6.05;;
72882;SDS011;61017;37.812;-122.286;2022-12-18T06:01:05;19.02;;;6.10;;
72882;SDS011;61017;37.812;-122.286;2022-12-18T06:03:14;17.27;;;5.82;;
72882;SDS011;61017;37.812;-122.286;2022-12-18T06:05:05;12.60;;;6.07;;
72882;SDS011;61017;37.812;-122.286;2022-12-18T06:06:55;19.08;;;6.18;;
72882;SDS011;61017;37.812;-122.286;2022-12-18T06:08:45;12.15;;;5.47;;
72882;SDS011;61017;37.812;-122.286;2022-12-18T06:10:37;11.70;;;5.72;;
72882;SDS011;61017;37.812;-122.286;2022-12-18T06:12:27;20.02;;;5.85;;
72882;SDS011;61017;37.812;-122.286;2022-12-18T06:14:17;12.57;;;5.65;;
72882;SDS011;61017;37.812;-122.286;2022-12-18T06:16:07;14.35;;;6.20;;
72882;SDS011;61017;37.812;-122.286;2022-12-18T06:17:57;13.07;;;6.10;;
72882;SDS011;61017;37.812;-122.286;2022-12-18T06:19:47;11.80;;;5.60;;
72882;SDS011;61017;37.812;-122.286;2022-12-18T06:21:37;14.20;;;6.30;;
72882;SDS011;61017;37.812;-122.286;2022-12-18T06:23:27;10.65;;;5.47;;
72882;SDS011;61017;37.812;-122.286;2022-12-18T06:25:18;15.30;;;6.03;;
72882;SDS011;61017;37.812;-122.286;2022-12-18T06:27:08;40.47;;;6.63;;
72882;SDS011;61017;37.812;-122.286;2022-12-18T06:28:58;11.88;;;5.78;;
72882;SDS011;61017;37.812;-122.286;2022-12-18T06:30:49;11.40;;;5.53;;
72882;SDS011;61017;37.812;-122.286;2022-12-18T06:32:39;14.40;;;5.50;;
72882;SDS011;61017;37.812;-122.286;2022-12-18T06:34:29;9.77;;;5.47;;
72882;SDS011;61017;37.812;-122.286;2022-12-18T06:36:19;12.05;;;5.90;;
72882;SDS011;61017;37.812;-122.286;2022-12-18T06:38:09;14.70;;;5.63;;
72882;SDS011;61017;37.812;-122.286;2022-12-18T06:40:00;10.73;;;5.93;;
72882;SDS011;61017;37.812;-122.286;2022-12-18T06:41:50;18.67;;;5.82;;
72882;SDS011;61017;37.812;-122.286;2022-12-18T06:43:40;9.93;;;5.53;;
72882;SDS011;61017;37.812;-122.286;2022-12-18T06:45:31;11.88;;;5.50;;
72882;SDS011;61017;37.812;-122.286;2022-12-18T06:47:21;9.77;;;5.75;;
72882;SDS011;61017;37.812;-122.286;2022-12-18T06:49:11;11.85;;;5.85;;
72882;SDS011;61017;37.812;-122.286;2022-12-18T06:51:02;8.68;;;6.07;;
72882;SDS011;61017;37.812;-122.286;2022-12-18T06:52:52;12.35;;;6.05;;
72882;SDS011;61017;37.812;-122.286;2022-12-18T06:54:42;9.48;;;5.90;;
72882;SDS011;61017;37.812;-122.286;2022-12-18T06:56:32;9.55;;;5.75;;
72882;SDS011;61017;37.812;-122.286;2022-12-18T06:58:22;10.55;;;6.18;;
72882;SDS011;61017;37.812;-122.286;2022-12-18T07:00:12;10.45;;;6.03;;
72882;SDS011;61017;37.812;-122.286;2022-12-18T07:02:03;8.77;;;5.97;;
72882;SDS011;61017;37.812;-122.286;2022-12-18T07:03:53;9.68;;;5.50;;
72882;SDS011;61017;37.812;-122.286;2022-12-18T07:05:45;9.50;;;6.15;;
72882;SDS011;61017;37.812;-122.286;2022-12-18T07:07:35;14.00;;;6.00;;
72882;SDS011;61017;37.812;-122.286;2022-12-18T07:09:25;12.75;;;6.20;;
72882;SDS011;61017;37.812;-122.286;2022-12-18T07:11:15;10.57;;;6.15;;
72882;SDS011;61017;37.812;-122.286;2022-12-18T07:13:06;10.02;;;6.00;;
72882;SDS011;61017;37.812;-122.286;2022-12-18T07:14:57;9.98;;;6.47;;
72882;SDS011;61017;37.812;-122.286;2022-12-18T07:16:46;9.57;;;5.63;;
72882;SDS011;61017;37.812;-122.286;2022-12-18T07:18:36;8.02;;;5.70;;
72882;SDS011;61017;37.812;-122.286;2022-12-18T07:20:26;8.27;;;5.38;;
72882;SDS011;61017;37.812;-122.286;2022-12-18T07:22:17;8.55;;;5.53;;
72882;SDS011;61017;37.812;-122.286;2022-12-18T07:24:07;11.25;;;5.90;;
72882;SDS011;61017;37.812;-122.286;2022-12-18T07:26:00;10.18;;;6.10;;
72882;SDS011;61017;37.812;-122.286;2022-12-18T07:29:40;9.00;;;5.82;;
72882;SDS011;61017;37.812;-122.286;2022-12-18T07:31:31;9.98;;;6.07;;
72882;SDS011;61017;37.812;-122.286;2022-12-18T07:33:21;9.40;;;6.30;;
72882;SDS011;61017;37.812;-122.286;2022-12-18T07:35:11;10.15;;;6.05;;
72882;SDS011;61017;37.812;-122.286;2022-12-18T07:37:01;10.05;;;5.93;;
72882;SDS011;61017;37.812;-122.286;2022-12-18T07:38:51;9.50;;;6.25;;
72882;SDS011;61017;37.812;-122.286;2022-12-18T07:40:41;10.77;;;6.38;;
72882;SDS011;61017;37.812;-122.286;2022-12-18T07:42:31;8.40;;;6.10;;
72882;SDS011;61017;37.812;-122.286;2022-12-18T07:44:21;9.25;;;5.97;;
72882;SDS011;61017;37.812;-122.286;2022-12-18T07:46:12;9.43;;;6.68;;
72882;SDS011;61017;37.812;-122.286;2022-12-18T07:48:03;7.88;;;5.57;;
72882;SDS011;61017;37.812;-122.286;2022-12-18T07:49:53;14.32;;;6.22;;
72882;SDS011;61017;37.812;-122.286;2022-12-18T07:51:43;12.93;;;6.45;;
72882;SDS011;61017;37.812;-122.286;2022-12-18T07:53:34;12.43;;;6.25;;
72882;SDS011;61017;37.812;-122.286;2022-12-18T07:55:25;11.75;;;5.97;;
72882;SDS011;61017;37.812;-122.286;2022-12-18T07:57:15;10.43;;;6.47;;
72882;SDS011;61017;37.812;-122.286;2022-12-18T07:59:05;11.95;;;6.20;;
72882;SDS011;61017;37.812;-122.286;2022-12-18T08:01:29;11.25;;;6.20;;
72882;SDS011;61017;37.812;-122.286;2022-12-18T08:03:13;12.00;;;6.40;;
72882;SDS011;61017;37.812;-122.286;2022-12-18T08:05:03;9.98;;;6.00;;
72882;SDS011;61017;37.812;-122.286;2022-12-18T08:06:53;12.30;;;6.57;;
72882;SDS011;61017;37.812;-122.286;2022-12-18T08:08:44;11.63;;;6.55;;
72882;SDS011;61017;37.812;-122.286;2022-12-18T08:10:34;13.45;;;6.70;;
72882;SDS011;61017;37.812;-122.286;2022-12-18T08:12:24;10.38;;;6.40;;
72882;SDS011;61017;37.812;-122.286;2022-12-18T08:14:13;12.15;;;6.90;;
72882;SDS011;61017;37.812;-122.286;2022-12-18T08:16:05;12.95;;;6.32;;
72882;SDS011;61017;37.812;-122.286;2022-12-18T08:17:56;16.70;;;6.80;;
72882;SDS011;61017;37.812;-122.286;2022-12-18T08:19:46;28.08;;;6.60;;
72882;SDS011;61017;37.812;-122.286;2022-12-18T08:21:36;11.77;;;6.60;;
72882;SDS011;61017;37.812;-122.286;2022-12-18T08:23:26;11.68;;;6.63;;
72882;SDS011;61017;37.812;-122.286;2022-12-18T08:25:16;9.35;;;6.28;;
72882;SDS011;61017;37.812;-122.286;2022-12-18T08:27:06;11.32;;;6.32;;
72882;SDS011;61017;37.812;-122.286;2022-12-18T08:28:57;12.15;;;6.43;;
72882;SDS011;61017;37.812;-122.286;2022-12-18T08:30:51;12.30;;;6.45;;
72882;SDS011;61017;37.812;-122.286;2022-12-18T08:32:41;15.13;;;6.57;;
72882;SDS011;61017;37.812;-122.286;2022-12-18T08:34:31;11.45;;;6.55;;
72882;SDS011;61017;37.812;-122.286;2022-12-18T08:36:22;11.30;;;6.55;;
72882;SDS011;61017;37.812;-122.286;2022-12-18T08:38:13;14.88;;;6.22;;
72882;SDS011;61017;37.812;-122.286;2022-12-18T08:40:04;13.07;;;6.57;;
72882;SDS011;61017;37.812;-122.286;2022-12-18T08:41:54;15.13;;;6.60;;
72882;SDS011;61017;37.812;-122.286;2022-12-18T08:43:45;17.73;;;6.82;;
72882;SDS011;61017;37.812;-122.286;2022-12-18T08:45:35;16.25;;;6.95;;
72882;SDS011;61017;37.812;-122.286;2022-12-18T08:47:25;11.27;;;6.90;;
72882;SDS011;61017;37.812;-122.286;2022-12-18T08:49:15;11.65;;;6.68;;
72882;SDS011;61017;37.812;-122.286;2022-12-18T08:51:05;12.73;;;6.57;;
72882;SDS011;61017;37.812;-122.286;2022-12-18T08:52:55;11.15;;;5.93;;
72882;SDS011;61017;37.812;-122.286;2022-12-18T08:54:45;11.77;;;6.40;;
72882;SDS011;61017;37.812;-122.286;2022-12-18T08:56:36;12.38;;;6.75;;
72882;SDS011;61017;37.812;-122.286;2022-12-18T08:58:26;12.38;;;6.28;;
72882;SDS011;61017;37.812;-122.286;2022-12-18T09:00:16;13.55;;;6.50;;
72882;SDS011;61017;37.812;-122.286;2022-12-18T09:02:08;12.30;;;6.78;;
72882;SDS011;61017;37.812;-122.286;2022-12-18T09:03:59;11.27;;;7.20;;
72882;SDS011;61017;37.812;-122.286;2022-12-18T09:05:50;11.43;;;6.78;;
72882;SDS011;61017;37.812;-122.286;2022-12-18T09:08:00;10.93;;;6.85;;
72882;SDS011;61017;37.812;-122.286;2022-12-18T09:09:50;10.20;;;6.70;;
72882;SDS011;61017;37.812;-122.286;2022-12-18T09:11:40;9.68;;;6.90;;
72882;SDS011;61017;37.812;-122.286;2022-12-18T09:13:30;10.05;;;6.50;;
72882;SDS011;61017;37.812;-122.286;2022-12-18T09:15:20;11.07;;;6.90;;
72882;SDS011;61017;37.812;-122.286;2022-12-18T09:17:10;11.77;;;6.57;;
72882;SDS011;61017;37.812;-122.286;2022-12-18T09:19:02;12.07;;;6.43;;
72882;SDS011;61017;37.812;-122.286;2022-12-18T09:20:53;11.98;;;6.88;;
72882;SDS011;61017;37.812;-122.286;2022-12-18T09:22:43;10.85;;;7.20;;
72882;SDS011;61017;37.812;-122.286;2022-12-18T09:24:33;12.52;;;6.72;;
72882;SDS011;61017;37.812;-122.286;2022-12-18T09:26:23;12.05;;;7.22;;
72882;SDS011;61017;37.812;-122.286;2022-12-18T09:28:15;14.88;;;7.00;;
72882;SDS011;61017;37.812;-122.286;2022-12-18T09:30:07;10.57;;;6.97;;
72882;SDS011;61017;37.812;-122.286;2022-12-18T09:31:58;17.58;;;7.28;;
72882;SDS011;61017;37.812;-122.286;2022-12-18T09:33:48;13.50;;;7.07;;
72882;SDS011;61017;37.812;-122.286;2022-12-18T09:35:40;12.68;;;7.05;;
72882;SDS011;61017;37.812;-122.286;2022-12-18T09:37:31;11.02;;;7.03;;
72882;SDS011;61017;37.812;-122.286;2022-12-18T09:39:21;10.95;;;7.20;;
72882;SDS011;61017;37.812;-122.286;2022-12-18T09:41:33;12.98;;;7.60;;
72882;SDS011;61017;37.812;-122.286;2022-12-18T09:43:53;10.75;;;7.55;;
72882;SDS011;61017;37.812;-122.286;2022-12-18T09:45:49;11.55;;;7.28;;
72882;SDS011;61017;37.812;-122.286;2022-12-18T09:47:42;10.70;;;7.30;;
72882;SDS011;61017;37.812;-122.286;2022-12-18T09:49:35;11.80;;;7.63;;
72882;SDS011;61017;37.812;-122.286;2022-12-18T09:51:34;10.75;;;7.30;;
72882;SDS011;61017;37.812;-122.286;2022-12-18T09:53:31;11.43;;;7.43;;
72882;SDS011;61017;37.812;-122.286;2022-12-18T09:55:42;12.20;;;7.80;;
72882;SDS011;61017;37.812;-122.286;2022-12-18T09:57:34;11.27;;;7.40;;
72882;SDS011;61017;37.812;-122.286;2022-12-18T09:59:38;13.70;;;7.53;;
72882;SDS011;61017;37.812;-122.286;2022-12-18T10:01:28;11.75;;;7.32;;
72882;SDS011;61017;37.812;-122.286;2022-12-18T10:03:21;12.18;;;7.90;;
72882;SDS011;61017;37.812;-122.286;2022-12-18T10:05:15;13.57;;;7.75;;
72882;SDS011;61017;37.812;-122.286;2022-12-18T10:07:13;12.82;;;8.07;;
72882;SDS011;61017;37.812;-122.286;2022-12-18T10:09:31;14.82;;;8.18;;
72882;SDS011;61017;37.812;-122.286;2022-12-18T10:14:04;10.93;;;7.90;;
72882;SDS011;61017;37.812;-122.286;2022-12-18T10:16:56;12.77;;;7.90;;
72882;SDS011;61017;37.812;-122.286;2022-12-18T10:18:58;11.30;;;7.57;;
72882;SDS011;61017;37.812;-122.286;2022-12-18T10:21:01;10.98;;;7.30;;
72882;SDS011;61017;37.812;-122.286;2022-12-18T10:27:15;10.90;;;8.10;;
72882;SDS011;61017;37.812;-122.286;2022-12-18T10:29:11;12.38;;;8.32;;
72882;SDS011;61017;37.812;-122.286;2022-12-18T10:31:04;13.07;;;8.70;;
72882;SDS011;61017;37.812;-122.286;2022-12-18T10:32:59;11.98;;;8.20;;
72882;SDS011;61017;37.812;-122.286;2022-12-18T10:34:52;13.02;;;8.30;;
72882;SDS011;61017;37.812;-122.286;2022-12-18T10:36:44;12.53;;;8.40;;
72882;SDS011;61017;37.812;-122.286;2022-12-18T10:38:35;12.25;;;7.93;;
72882;SDS011;61017;37.812;-122.286;2022-12-18T10:40:26;12.02;;;8.35;;
72882;SDS011;61017;37.812;-122.286;2022-12-18T10:42:17;11.45;;;7.93;;
72882;SDS011;61017;37.812;-122.286;2022-12-18T10:44:12;10.75;;;8.27;;
72882;SDS011;61017;37.812;-122.286;2022-12-18T10:47:57;12.98;;;8.40;;
72882;SDS011;61017;37.812;-122.286;2022-12-18T10:49:49;11.60;;;7.88;;
72882;SDS011;61017;37.812;-122.286;2022-12-18T10:51:41;11.93;;;8.10;;
72882;SDS011;61017;37.812;-122.286;2022-12-18T10:53:31;11.43;;;8.32;;
72882;SDS011;61017;37.812;-122.286;2022-12-18T10:55:25;12.40;;;8.20;;
72882;SDS011;61017;37.812;-122.286;2022-12-18T10:59:26;12.60;;;8.23;;
72882;SDS011;61017;37.812;-122.286;2022-12-18T11:01:17;12.70;;;8.48;;
72882;SDS011;61017;37.812;-122.286;2022-12-18T11:05:31;13.05;;;8.77;;
72882;SDS011;61017;37.812;-122.286;2022-12-18T11:07:22;12.35;;;8.30;;
72882;SDS011;61017;37.812;-122.286;2022-12-18T11:09:19;12.77;;;8.70;;
72882;SDS011;61017;37.812;-122.286;2022-12-18T11:11:19;12.80;;;8.70;;
72882;SDS011;61017;37.812;-122.286;2022-12-18T11:13:23;12.35;;;8.15;;
72882;SDS011;61017;37.812;-122.286;2022-12-18T11:15:20;12.10;;;8.13;;
72882;SDS011;61017;37.812;-122.286;2022-12-18T11:19:26;12.20;;;8.43;;
72882;SDS011;61017;37.812;-122.286;2022-12-18T11:21:20;10.70;;;7.78;;
72882;SDS011;61017;37.812;-122.286;2022-12-18T11:23:11;11.13;;;7.95;;
72882;SDS011;61017;37.812;-122.286;2022-12-18T11:25:04;16.10;;;9.18;;
72882;SDS011;61017;37.812;-122.286;2022-12-18T11:26:55;12.65;;;8.77;;
72882;SDS011;61017;37.812;-122.286;2022-12-18T11:29:08;13.38;;;8.10;;
72882;SDS011;61017;37.812;-122.286;2022-12-18T11:35:04;12.77;;;8.52;;